Time;durP1;ratioP1;P1;durP2;ratioP2;P2;SDS_P1;SDS_P2;PMS_P1;PMS_P2;Temp;Humidity;BMP_temperature;BMP_pressure;BME280_temperature;BME280_humidity;BME280_pressure;Samples;Min_cycle;Max_cycle;Signal;HPM_P1;HPM_P2
2022/02/01 00:00:41;;;;;;;4.60;2.00;;;;;;;-1.48;67.77;97504.44;105142;1271;60949;-23
2022/02/01 00:03:14;;;;;;;6.00;1.90;;;;;;;-1.78;68.48;97503.67;105165;1271;75383;-23
2022/02/01 00:11:18;;;;;;;7.20;1.90;;;;;;;-2.59;71.10;97504.66;105136;1271;61151;-23
2022/02/01 00:35:34;;;;;;;5.90;2.40;;;;;;;-2.75;70.39;97520.08;105117;1271;74442;-23
2022/02/01 00:38:18;;;;;;;6.60;2.50;;;;;;;-3.02;71.25;97519.91;105139;1271;61162;-23
2022/02/01 00:40:55;;;;;;;5.10;2.10;;;;;;;-3.26;72.20;97522.64;104982;1271;62143;-23
2022/02/01 00:43:23;;;;;;;6.80;1.80;;;;;;;-3.45;72.70;97521.35;105142;1271;73797;-23
2022/02/01 00:45:52;;;;;;;6.20;2.30;;;;;;;-3.63;72.89;97518.14;105137;1271;75773;-23
2022/02/01 00:48:20;;;;;;;4.60;1.40;;;;;;;-3.78;73.71;97519.88;105114;1271;74461;-23
2022/02/01 00:50:49;;;;;;;4.50;2.10;;;;;;;-3.91;73.70;97518.95;105150;1271;61366;-23
2022/02/01 00:53:22;;;;;;;4.90;1.70;;;;;;;-4.01;74.28;97520.61;105155;1271;61130;-23
2022/02/01 00:55:50;;;;;;;3.00;1.70;;;;;;;-3.48;73.55;97527.26;105077;1271;75871;-23
2022/02/01 00:58:19;;;;;;;2.10;1.10;;;;;;;-2.71;71.20;97527.85;105038;1271;74754;-23
2022/02/01 01:00:47;;;;;;;5.00;1.90;;;;;;;-2.59;69.57;97521.28;104911;1271;74638;-23
2022/02/01 01:03:17;;;;;;;3.10;1.80;;;;;;;-2.79;69.70;97521.98;104960;1271;61083;-23
2022/02/01 01:05:46;;;;;;;6.50;1.90;;;;;;;-3.07;70.42;97521.37;105135;1271;61030;-23
2022/02/01 01:08:16;;;;;;;2.90;1.50;;;;;;;-3.35;71.38;97514.25;105077;1271;75537;-23
2022/02/01 01:10:45;;;;;;;4.30;2.00;;;;;;;-3.59;72.10;97519.80;105164;1271;75985;-23
2022/02/01 01:43:58;;;;;;;6.90;2.30;;;;;;;-4.11;72.72;97526.66;104495;1277;61233;-23
2022/02/01 01:54:30;;;;;;;6.60;2.10;;;;;;;-4.81;75.62;97539.73;105148;1271;73226;-23
2022/02/01 01:57:03;;;;;;;6.80;2.00;;;;;;;-4.61;75.37;97547.67;105089;1271;63639;-23
2022/02/01 01:59:32;;;;;;;4.30;1.50;;;;;;;-3.85;73.54;97544.94;104927;1274;61843;-23
2022/02/01 02:02:00;;;;;;;3.50;1.90;;;;;;;-3.52;71.97;97543.38;105152;1271;74590;-23
2022/02/01 02:04:30;;;;;;;5.10;2.30;;;;;;;-3.60;71.45;97545.33;105084;1271;73226;-23
2022/02/01 02:06:58;;;;;;;7.00;2.50;;;;;;;-3.86;72.26;97536.17;104953;1271;73425;-23
2022/02/01 02:09:27;;;;;;;4.90;1.90;;;;;;;-4.15;73.13;97539.19;104931;1271;61045;-23
2022/02/01 02:12:07;;;;;;;2.20;1.70;;;;;;;-4.33;73.78;97546.66;104882;1271;61047;-23
2022/02/01 02:14:47;;;;;;;7.20;1.90;;;;;;;-4.54;74.79;97543.50;104885;1271;74607;-23
2022/02/01 02:17:16;;;;;;;3.90;1.80;;;;;;;-4.72;75.14;97543.27;104727;1271;75992;-23
2022/02/01 02:19:44;;;;;;;4.80;2.10;;;;;;;-4.88;75.73;97543.29;104884;1271;73638;-23
2022/02/01 02:22:12;;;;;;;5.60;2.10;;;;;;;-5.00;76.97;97542.93;104893;1271;61163;-22
2022/02/01 02:24:43;;;;;;;6.30;1.50;;;;;;;-4.51;75.55;97545.70;104901;1271;61142;-24
2022/02/01 02:27:12;;;;;;;6.10;2.00;;;;;;;-3.84;73.16;97540.84;104897;1271;75405;-23
2022/02/01 02:29:40;;;;;;;4.50;2.20;;;;;;;-3.70;72.30;97542.23;104896;1271;74971;-24
2022/02/01 02:32:09;;;;;;;8.50;2.80;;;;;;;-3.86;72.13;97542.61;104967;1271;71315;-22
2022/02/01 02:34:37;;;;;;;2.80;1.50;;;;;;;-4.06;72.93;97543.73;105116;1270;61289;-23
2022/02/01 02:37:13;;;;;;;9.20;2.50;;;;;;;-4.29;73.34;97540.86;105101;1271;61261;-23
2022/02/01 02:40:02;;;;;;;6.60;2.30;;;;;;;-4.54;74.13;97542.80;104997;1271;75513;-23
2022/02/01 02:45:04;;;;;;;1.10;1.00;;;;;;;-4.77;74.79;97544.83;104889;1274;76303;-23
2022/02/01 02:45:23;;;;;;;6.20;1.50;;;;;;;-4.99;75.21;97545.59;105062;1271;72909;-25
2022/02/01 02:47:51;;;;;;;4.50;1.60;;;;;;;-4.99;76.28;97547.61;105134;1274;62330;-23
2022/02/01 02:50:22;;;;;;;8.10;2.70;;;;;;;-4.27;74.37;97550.11;105162;1271;61729;-23
2022/02/01 02:52:51;;;;;;;4.30;2.10;;;;;;;-3.82;72.70;97550.11;105019;1271;75511;-23
2022/02/01 02:55:19;;;;;;;6.50;2.80;;;;;;;-3.88;72.51;97547.29;104814;1271;75938;-23
2022/02/01 02:57:47;;;;;;;4.50;2.20;;;;;;;-4.05;72.54;97552.98;104656;1274;73396;-23
2022/02/01 03:00:16;;;;;;;8.00;2.10;;;;;;;-4.28;73.07;97558.77;104906;1271;61075;-23
2022/02/01 03:02:45;;;;;;;6.80;2.10;;;;;;;-4.49;73.61;97562.42;104989;1271;61025;-22
2022/02/01 03:05:13;;;;;;;3.10;2.00;;;;;;;-4.69;74.76;97570.21;105155;1271;75691;-23
2022/02/01 03:07:42;;;;;;;6.70;2.50;;;;;;;-4.84;75.67;97569.66;105100;1271;75079;-23
2022/02/01 03:10:11;;;;;;;10.00;2.80;;;;;;;-4.93;76.03;97575.15;104904;1271;74405;-23
2022/02/01 03:13:07;;;;;;;3.10;1.70;;;;;;;-4.93;76.38;97579.18;104900;1271;62685;-23
2022/02/01 03:15:42;;;;;;;4.10;1.50;;;;;;;-4.06;74.32;97581.00;104938;1271;61010;-23
2022/02/01 03:20:58;;;;;;;6.60;2.30;;;;;;;-3.70;71.83;97588.88;105145;1271;75860;-23
2022/02/01 03:23:27;;;;;;;5.90;2.50;;;;;;;-3.93;71.93;97588.76;105021;1271;74334;-23
2022/02/01 03:25:55;;;;;;;8.50;2.30;;;;;;;-4.21;72.64;97586.94;104775;1274;61155;-23
2022/02/01 03:28:27;;;;;;;5.50;2.70;;;;;;;-4.44;73.41;97600.83;105070;1274;61744;-23
2022/02/01 03:30:55;;;;;;;5.70;2.10;;;;;;;-4.68;74.42;97601.02;105013;1270;75297;-23
2022/02/01 03:33:24;;;;;;;4.50;2.10;;;;;;;-4.86;74.54;97596.02;104948;1271;73924;-23
2022/02/01 03:35:52;;;;;;;3.20;1.70;;;;;;;-5.03;74.81;97594.35;104650;1272;74216;-23
2022/02/01 03:38:21;;;;;;;4.90;2.60;;;;;;;-5.22;75.51;97597.79;104920;1271;61271;-23
2022/02/01 03:40:49;;;;;;;1.90;1.40;;;;;;;-5.34;76.43;97595.59;104937;1271;61095;-23
2022/02/01 03:43:17;;;;;;;9.40;2.10;;;;;;;-4.79;75.74;97603.98;105069;1271;74198;-23
2022/02/01 03:45:46;;;;;;;9.70;2.30;;;;;;;-4.08;73.28;97602.10;105124;1271;75922;-23
2022/02/01 03:48:14;;;;;;;8.70;2.70;;;;;;;-3.87;72.35;97605.42;104921;1271;72892;-23
2022/02/01 03:50:43;;;;;;;6.70;2.50;;;;;;;-4.00;72.13;97609.39;105112;1271;61105;-23
2022/02/01 03:53:12;;;;;;;6.30;2.40;;;;;;;-4.22;72.70;97609.70;105166;1271;62022;-23
2022/02/01 03:55:41;;;;;;;2.60;1.90;;;;;;;-4.45;73.77;97606.94;105144;1271;75663;-23
2022/02/01 03:58:09;;;;;;;6.70;2.20;;;;;;;-4.61;74.25;97603.09;104999;1271;75744;-23
2022/02/01 04:00:37;;;;;;;5.00;2.30;;;;;;;-4.75;74.84;97606.03;104955;1271;72216;-22
2022/02/01 04:03:06;;;;;;;3.50;1.90;;;;;;;-4.88;75.20;97604.05;105031;1271;61354;-22
2022/02/01 04:05:35;;;;;;;3.30;2.00;;;;;;;-5.01;76.10;97607.45;105131;1271;61225;-22
2022/02/01 04:08:04;;;;;;;6.30;2.00;;;;;;;-5.07;76.17;97615.97;105095;1274;72930;-23
2022/02/01 04:10:32;;;;;;;3.90;2.00;;;;;;;-4.52;75.72;97622.48;104848;1272;76224;-23
2022/02/01 04:13:03;;;;;;;10.50;2.70;;;;;;;-3.91;73.47;97627.13;104983;1271;74575;-25
2022/02/01 04:15:32;;;;;;;9.80;3.00;;;;;;;-3.78;72.64;97630.44;104970;1271;61565;-24
2022/02/01 04:18:01;;;;;;;6.30;2.40;;;;;;;-3.93;72.83;97632.48;104926;1271;61041;-23
2022/02/01 04:20:29;;;;;;;6.00;2.60;;;;;;;-4.10;73.05;97634.09;104937;1271;74487;-23
2022/02/01 04:22:58;;;;;;;5.10;2.00;;;;;;;-4.32;74.08;97631.81;104995;1271;75194;-27
2022/02/01 04:25:27;;;;;;;2.80;1.60;;;;;;;-4.49;74.67;97631.22;105153;1271;72979;-24
2022/02/01 04:27:55;;;;;;;5.20;2.40;;;;;;;-4.66;75.13;97635.97;105118;1271;62423;-24
2022/02/01 04:30:24;;;;;;;4.40;1.90;;;;;;;-4.82;75.78;97641.38;105178;1274;61153;-24
2022/02/01 04:32:53;;;;;;;4.10;2.00;;;;;;;-4.98;76.31;97643.56;105105;1271;75742;-22
2022/02/01 04:35:24;;;;;;;7.10;1.80;;;;;;;-4.94;76.62;97643.75;104666;1271;75818;-22
2022/02/01 04:37:54;;;;;;;5.40;2.00;;;;;;;-4.20;74.70;97644.52;104783;1271;70662;-24
2022/02/01 04:40:24;;;;;;;6.30;2.00;;;;;;;-3.80;72.91;97644.45;104669;1271;61157;-22
2022/02/01 04:42:54;;;;;;;13.90;3.70;;;;;;;-3.87;72.23;97644.75;104675;1274;61332;-24
2022/02/01 04:45:23;;;;;;;5.40;1.90;;;;;;;-4.06;72.91;97644.59;104885;1271;73580;-22
2022/02/01 04:47:52;;;;;;;6.90;2.60;;;;;;;-4.31;73.75;97643.27;104816;1272;76437;-24
2022/02/01 04:50:23;;;;;;;6.80;3.00;;;;;;;-4.51;74.45;97648.90;104699;1274;74368;-24
2022/02/01 04:52:53;;;;;;;5.60;2.10;;;;;;;-4.75;75.68;97649.92;104787;1271;61435;-24
2022/02/01 04:55:24;;;;;;;3.50;2.40;;;;;;;-4.91;76.53;97651.73;104872;1271;61792;-24
2022/02/01 04:57:55;;;;;;;7.80;3.30;;;;;;;-5.00;76.68;97662.77;104675;1271;75885;-22
2022/02/01 05:00:25;;;;;;;3.60;2.00;;;;;;;-5.04;76.73;97667.85;104976;1271;75845;-23
2022/02/01 05:02:55;;;;;;;5.90;1.70;;;;;;;-4.51;75.67;97671.58;104698;1271;73722;-23
2022/02/01 05:05:29;;;;;;;5.40;2.20;;;;;;;-3.86;73.25;97680.35;104739;1271;61100;-23
2022/02/01 05:07:59;;;;;;;3.70;1.60;;;;;;;-3.73;72.15;97689.42;104823;1271;62212;-23
2022/02/01 05:10:32;;;;;;;4.60;1.90;;;;;;;-3.90;72.54;97684.73;104724;1271;75690;-23
2022/02/01 05:15:40;;;;;;;8.90;2.80;;;;;;;-4.34;74.25;97685.94;104674;1274;74001;-23
2022/02/01 05:18:16;;;;;;;4.50;2.10;;;;;;;-4.49;74.74;97685.23;104912;1274;61077;-23
2022/02/01 05:20:50;;;;;;;3.80;2.10;;;;;;;-4.62;75.28;97686.97;105108;1271;61099;-23
2022/02/01 05:23:24;;;;;;;8.50;3.20;;;;;;;-4.75;75.72;97693.58;105200;1271;74601;-23
2022/02/01 05:25:52;;;;;;;7.20;1.90;;;;;;;-4.79;76.07;97701.85;105089;1271;76028;-23
2022/02/01 05:28:21;;;;;;;4.00;2.10;;;;;;;-4.22;74.77;97711.88;105098;1271;73167;-23
2022/02/01 05:30:49;;;;;;;3.70;1.90;;;;;;;-3.64;72.38;97716.30;105133;1271;61440;-23
2022/02/01 05:33:18;;;;;;;4.90;1.90;;;;;;;-3.53;71.64;97724.65;105069;1271;61976;-23
2022/02/01 05:35:47;;;;;;;5.00;1.80;;;;;;;-3.73;71.62;97713.83;104844;1271;75698;-23
2022/02/01 05:38:15;;;;;;;6.10;2.00;;;;;;;-4.02;72.65;97714.25;104970;1271;75934;-23
2022/02/01 05:40:43;;;;;;;3.80;2.40;;;;;;;-4.25;73.16;97709.29;104941;1271;74361;-23
2022/02/01 05:43:17;;;;;;;4.40;2.60;;;;;;;-4.45;74.35;97718.80;105019;1271;60977;-23
2022/02/01 05:45:45;;;;;;;8.70;2.70;;;;;;;-4.57;74.68;97720.14;104913;1271;62084;-23
2022/02/01 05:48:14;;;;;;;6.00;2.80;;;;;;;-4.72;75.33;97729.71;104995;1271;75526;-23
2022/02/01 05:50:44;;;;;;;11.10;3.30;;;;;;;-4.83;75.92;97742.83;104639;1271;75097;-23
2022/02/01 05:53:12;;;;;;;8.90;2.90;;;;;;;-4.72;75.53;97741.21;104847;1271;74429;-23
2022/02/01 05:55:41;;;;;;;6.60;2.40;;;;;;;-3.97;73.72;97743.91;105041;1271;61147;-23
2022/02/01 05:58:09;;;;;;;5.30;1.80;;;;;;;-3.49;71.49;97751.65;105147;1271;62051;-23
2022/02/01 06:00:39;;;;;;;17.00;4.90;;;;;;;-3.47;71.04;97755.63;105191;1271;74061;-24
2022/02/01 06:03:07;;;;;;;8.20;3.20;;;;;;;-3.73;71.86;97758.13;105163;1271;75036;-22
2022/02/01 06:05:37;;;;;;;7.60;3.00;;;;;;;-3.93;72.60;97761.69;104947;1271;73568;-23
2022/02/01 06:08:05;;;;;;;4.00;2.60;;;;;;;-4.12;73.19;97769.10;104937;1271;61172;-24
2022/02/01 06:10:35;;;;;;;10.30;3.40;;;;;;;-4.28;73.89;97769.27;104936;1271;61218;-23
2022/02/01 06:13:03;;;;;;;5.90;2.80;;;;;;;-4.39;74.22;97776.46;104848;1271;75630;-24
2022/02/01 06:15:34;;;;;;;3.40;1.90;;;;;;;-4.52;74.93;97775.67;104877;1271;75769;-22
2022/02/01 06:18:03;;;;;;;8.30;3.00;;;;;;;-4.61;75.32;97777.73;104863;1271;73462;-22
2022/02/01 06:20:32;;;;;;;9.70;2.50;;;;;;;-4.67;75.88;97780.33;104897;1271;62835;-22
2022/02/01 06:23:02;;;;;;;6.90;2.40;;;;;;;-4.12;74.37;97786.73;105072;1271;61051;-22
2022/02/01 06:25:47;;;;;;;8.10;3.50;;;;;;;-3.38;71.82;97790.32;105174;1271;75295;-22
2022/02/01 06:28:26;;;;;;;10.50;3.20;;;;;;;-3.23;70.56;97788.52;105170;1271;74768;-22
2022/02/01 06:30:57;;;;;;;8.40;3.00;;;;;;;-3.46;71.34;97786.95;105047;1271;74747;-23
2022/02/01 06:33:26;;;;;;;9.10;4.10;;;;;;;-3.62;71.83;97796.83;104873;1271;61167;-23
2022/02/01 06:35:54;;;;;;;12.40;3.40;;;;;;;-3.82;72.58;97801.23;104940;1271;61671;-23
2022/02/01 06:38:22;;;;;;;8.20;2.80;;;;;;;-4.01;73.39;97802.22;104948;1270;74789;-23
2022/02/01 06:40:51;;;;;;;6.40;3.40;;;;;;;-4.12;73.63;97803.19;105012;1271;74958;-23
2022/02/01 06:43:19;;;;;;;11.10;4.20;;;;;;;-4.23;74.19;97804.66;105112;1271;74633;-23
2022/02/01 06:45:47;;;;;;;8.50;3.70;;;;;;;-4.30;74.91;97803.75;104898;1271;61169;-23
2022/02/01 06:48:16;;;;;;;17.30;5.00;;;;;;;-4.39;74.97;97810.20;105090;1271;61223;-23
2022/02/01 06:50:46;;;;;;;6.70;2.80;;;;;;;-4.30;75.23;97812.36;104894;1271;73418;-23
2022/02/01 06:53:15;;;;;;;8.50;3.30;;;;;;;-3.46;72.86;97818.19;104935;1271;75790;-23
2022/02/01 06:55:56;;;;;;;7.40;2.80;;;;;;;-2.97;70.37;97819.75;105094;1274;74372;-23
2022/02/01 06:58:25;;;;;;;9.10;3.40;;;;;;;-2.87;69.76;97818.64;105022;1271;61057;-24
2022/02/01 07:00:53;;;;;;;10.50;4.20;;;;;;;-3.11;70.06;97817.84;104816;1271;61083;-24
2022/02/01 07:03:22;;;;;;;7.60;3.30;;;;;;;-3.29;70.83;97819.00;104959;1271;74017;-22
2022/02/01 07:05:50;;;;;;;5.00;2.50;;;;;;;-3.41;71.52;97812.41;104893;1274;76006;-22
2022/02/01 07:08:20;;;;;;;7.40;3.90;;;;;;;-3.53;71.67;97814.76;104868;1271;74863;-22
2022/02/01 07:10:48;;;;;;;5.50;3.10;;;;;;;-3.64;72.19;97807.42;104762;1271;228958;-22
2022/02/01 07:13:17;;;;;;;17.00;3.60;;;;;;;-3.73;72.83;97811.90;105078;1271;61175;-23
2022/02/01 07:15:45;;;;;;;7.80;3.10;;;;;;;-3.82;72.72;97814.97;105157;1271;74731;-24
2022/02/01 07:18:14;;;;;;;9.10;3.30;;;;;;;-3.89;73.19;97811.22;105104;1271;76294;-22
2022/02/01 07:20:42;;;;;;;11.00;4.30;;;;;;;-3.92;73.37;97819.49;105099;1271;74134;-23
2022/02/01 07:23:15;;;;;;;13.50;3.40;;;;;;;-3.88;73.48;97820.98;105103;1271;62574;-24
2022/02/01 07:25:46;;;;;;;5.20;3.20;;;;;;;-3.20;71.86;97833.52;105124;1271;61173;-24
2022/02/01 07:28:18;;;;;;;5.70;2.80;;;;;;;-2.55;69.30;97837.66;104786;1271;74178;-24
2022/02/01 07:30:47;;;;;;;11.20;4.10;;;;;;;-2.33;68.04;97836.65;104855;1272;74835;-24
2022/02/01 07:33:15;;;;;;;6.40;3.60;;;;;;;-2.51;68.44;97836.30;104941;1271;73227;-24
2022/02/01 07:35:46;;;;;;;6.00;3.50;;;;;;;-2.69;68.90;97837.13;104875;1271;61172;-23
2022/02/01 07:38:18;;;;;;;9.20;3.90;;;;;;;-2.86;69.56;97832.30;104664;1271;61076;-24
2022/02/01 07:40:46;;;;;;;7.20;3.40;;;;;;;-2.93;70.02;97841.30;104639;1271;75638;-24
2022/02/01 07:43:16;;;;;;;11.40;4.20;;;;;;;-3.00;70.17;97839.08;104955;1271;74237;-22
2022/02/01 07:45:46;;;;;;;12.70;5.30;;;;;;;-3.07;70.60;97840.23;105145;1271;74405;-22
2022/02/01 07:48:15;;;;;;;8.40;3.00;;;;;;;-3.17;71.16;97842.90;105072;1272;61182;-23
2022/02/01 07:50:43;;;;;;;7.40;3.90;;;;;;;-3.20;71.52;97852.20;105141;1271;61786;-23
2022/02/01 07:53:11;;;;;;;7.10;3.50;;;;;;;-3.26;71.97;97846.17;105164;1271;74701;-23
2022/02/01 07:55:40;;;;;;;8.90;4.40;;;;;;;-3.26;71.93;97845.34;104780;1271;73940;-23
2022/02/01 07:58:08;;;;;;;9.10;4.10;;;;;;;-3.25;71.99;97847.98;104940;1271;72826;-23
2022/02/01 08:00:37;;;;;;;9.00;3.60;;;;;;;-2.65;70.50;97848.00;104867;1272;61357;-23
2022/02/01 08:03:06;;;;;;;7.50;3.00;;;;;;;-1.94;68.45;97855.52;105149;1271;61130;-22
2022/02/01 08:05:35;;;;;;;7.60;2.90;;;;;;;-1.76;67.15;97858.73;105126;1272;74249;-22
2022/02/01 08:08:07;;;;;;;8.30;3.60;;;;;;;-1.89;67.30;97860.02;104967;1271;75178;-23
2022/02/01 08:10:49;;;;;;;7.70;3.90;;;;;;;-1.99;67.55;97862.90;105011;1271;74239;-23
2022/02/01 08:19:23;;;;;;;8.70;3.90;;;;;;;-2.52;69.70;97865.27;105124;1271;74505;-23
2022/02/01 08:21:54;;;;;;;10.20;4.10;;;;;;;-2.62;70.16;97869.08;104984;1271;74147;-22
2022/02/01 08:24:22;;;;;;;8.30;3.60;;;;;;;-2.73;70.36;97866.89;104840;1272;74191;-22
2022/02/01 08:26:51;;;;;;;7.70;4.40;;;;;;;-2.79;70.79;97870.06;104931;1271;61134;-24
2022/02/01 08:29:19;;;;;;;9.50;3.90;;;;;;;-2.86;71.35;97873.25;104675;1274;61000;-22
2022/02/01 08:31:49;;;;;;;11.70;4.50;;;;;;;-2.82;71.28;97874.97;104918;1271;74140;-23
2022/02/01 08:34:18;;;;;;;7.40;3.40;;;;;;;-2.45;70.62;97880.71;104847;1273;75928;-22
2022/02/01 08:37:13;;;;;;;11.30;3.90;;;;;;;-1.66;67.60;97880.01;101836;1308;600639;-24
2022/02/01 08:39:41;;;;;;;5.50;2.60;;;;;;;-1.49;66.71;97880.70;104452;1283;61061;-24
2022/02/01 08:42:09;;;;;;;5.30;2.30;;;;;;;-1.61;66.84;97879.59;104508;1284;61859;-24
2022/02/01 08:44:38;;;;;;;7.10;3.10;;;;;;;-1.82;67.25;97878.90;105054;1274;73745;-24
2022/02/01 08:47:08;;;;;;;9.30;3.60;;;;;;;-2.02;68.16;97889.42;105054;1274;76021;-24
2022/02/01 08:49:36;;;;;;;9.60;3.90;;;;;;;-2.10;69.22;97897.79;104682;1277;74191;-24
2022/02/01 08:52:09;;;;;;;4.90;3.30;;;;;;;-2.18;69.32;97892.05;104815;1271;61075;-22
2022/02/01 08:54:39;;;;;;;10.40;4.60;;;;;;;-2.25;69.47;97891.17;104715;1271;61131;-23
2022/02/01 08:57:25;;;;;;;10.10;3.80;;;;;;;-2.33;69.79;97899.36;105125;1271;74043;-23
2022/02/01 09:00:02;;;;;;;8.80;3.90;;;;;;;-2.37;70.26;97899.73;105094;1272;75900;-23
2022/02/01 09:02:30;;;;;;;12.60;4.80;;;;;;;-2.40;70.40;97898.52;105047;1271;74257;-22
2022/02/01 09:04:59;;;;;;;5.70;2.50;;;;;;;-2.34;70.30;97896.89;104983;1271;61010;-22
2022/02/01 09:07:28;;;;;;;9.90;3.30;;;;;;;-2.40;70.30;97893.09;105129;1271;61034;-22
2022/02/01 09:09:56;;;;;;;4.90;2.40;;;;;;;-2.33;70.33;97901.77;105156;1274;75004;-22
2022/02/01 09:12:25;;;;;;;12.10;3.30;;;;;;;-1.68;68.67;97910.90;105144;1274;75926;-23
2022/02/01 09:14:53;;;;;;;7.00;3.40;;;;;;;-0.95;65.81;97911.32;105130;1271;74365;-23
2022/02/01 09:17:39;;;;;;;9.80;3.20;;;;;;;-0.74;64.44;97907.63;105107;1271;61154;-23
2022/02/01 09:20:09;;;;;;;9.00;3.40;;;;;;;-0.91;64.40;97898.80;104957;1273;61072;-22
2022/02/01 09:22:37;;;;;;;6.60;3.40;;;;;;;-1.06;64.72;97906.57;104819;1274;73829;-23
2022/02/01 09:25:07;;;;;;;7.10;3.10;;;;;;;-1.29;65.54;97909.10;104796;1274;73366;-23
2022/02/01 09:27:36;;;;;;;6.50;3.20;;;;;;;-1.36;65.50;97907.27;104831;1274;73226;-25
2022/02/01 09:30:05;;;;;;;9.30;4.50;;;;;;;-1.40;66.01;97913.42;105101;1274;61198;-22
2022/02/01 09:32:33;;;;;;;19.00;4.50;;;;;;;-1.42;66.29;97913.36;104783;1274;61066;-22
2022/02/01 09:35:14;;;;;;;10.50;3.50;;;;;;;-1.54;66.07;97909.20;105107;1274;73797;-25
2022/02/01 09:37:43;;;;;;;10.80;4.90;;;;;;;-1.55;66.69;97913.34;105144;1274;76011;-22
2022/02/01 09:40:31;;;;;;;9.40;4.00;;;;;;;-1.51;66.58;97913.80;105113;1274;74525;-23
2022/02/01 09:43:00;;;;;;;5.80;2.70;;;;;;;-1.58;65.96;97911.42;105055;1274;61146;-24
2022/02/01 09:45:33;;;;;;;6.60;4.10;;;;;;;-1.54;66.03;97908.34;104946;1274;61140;-25
2022/02/01 09:48:07;;;;;;;11.80;4.10;;;;;;;-1.53;65.60;97911.17;104772;1274;72463;-24
2022/02/01 09:50:35;;;;;;;7.90;3.90;;;;;;;-1.49;66.01;97911.98;104701;1275;74163;-23
2022/02/01 09:53:04;;;;;;;8.80;4.10;;;;;;;-1.48;66.05;97914.15;104864;1274;73423;-23
2022/02/01 09:55:32;;;;;;;9.10;4.50;;;;;;;-1.47;65.55;97913.94;105144;1273;61031;-24
2022/02/01 09:58:06;;;;;;;10.50;4.90;;;;;;;-1.45;65.13;97906.71;105099;1274;61204;-25
2022/02/01 10:00:36;;;;;;;7.30;3.20;;;;;;;-1.39;65.00;97897.87;105175;1274;74584;-25
2022/02/01 10:03:06;;;;;;;22.40;3.50;;;;;;;-1.38;64.28;97898.52;104804;1274;76000;-25
2022/02/01 10:05:35;;;;;;;8.40;4.00;;;;;;;-1.35;64.55;97898.73;105158;1274;70978;-23
2022/02/01 10:08:04;;;;;;;6.80;2.90;;;;;;;-1.25;63.71;97894.29;105163;1273;61044;-23
2022/02/01 10:10:33;;;;;;;5.50;3.10;;;;;;;-1.22;63.21;97886.95;105152;1274;60956;-23
2022/02/01 10:13:08;;;;;;;6.20;4.10;;;;;;;-1.13;63.42;97891.13;105087;1274;73901;-24
2022/02/01 10:15:36;;;;;;;11.60;3.20;;;;;;;-1.10;63.21;97895.36;104911;1273;76011;-24
2022/02/01 10:18:08;;;;;;;7.00;3.30;;;;;;;-1.13;62.93;97883.26;105138;1274;74769;-24
2022/02/01 10:20:41;;;;;;;7.00;2.80;;;;;;;-1.10;62.99;97883.64;104862;1274;61102;-22
2022/02/01 10:23:24;;;;;;;4.80;2.00;;;;;;;-1.09;62.91;97880.30;104785;1274;61180;-24
2022/02/01 10:26:03;;;;;;;6.40;3.40;;;;;;;-1.16;62.80;97889.21;104684;1274;73719;-24
2022/02/01 10:29:27;;;;;;;8.50;3.70;;;;;;;-1.27;62.80;97888.06;105101;1274;74799;-24
2022/02/01 10:31:52;;;;;;;5.20;2.20;;;;;;;-1.37;62.89;97888.08;104518;1274;71871;-26
2022/02/01 10:34:27;;;;;;;5.80;2.70;;;;;;;-1.39;62.84;97888.86;104683;1274;61105;-24
2022/02/01 10:36:58;;;;;;;5.70;2.90;;;;;;;-1.37;62.03;97880.08;104876;1274;61182;-25
2022/02/01 10:39:27;;;;;;;6.90;2.20;;;;;;;-1.35;61.31;97878.27;104857;1274;73414;-24
2022/02/01 10:42:01;;;;;;;5.70;3.00;;;;;;;-1.30;61.63;97888.42;104724;1274;76886;-23
2022/02/01 10:44:45;;;;;;;3.30;2.00;;;;;;;-1.25;61.41;97885.09;104763;1274;74517;-23
2022/02/01 10:47:40;;;;;;;6.90;2.30;;;;;;;-1.22;61.77;97887.14;104888;1274;61020;-23
2022/02/01 10:50:13;;;;;;;7.50;2.80;;;;;;;-1.17;60.63;97886.02;104663;1274;61187;-24
2022/02/01 10:52:49;;;;;;;5.40;2.60;;;;;;;-1.13;61.27;97889.20;104802;1274;74766;-23
2022/02/01 10:55:19;;;;;;;5.00;2.30;;;;;;;-1.03;60.91;97884.48;104727;1274;76560;-23
2022/02/01 10:57:48;;;;;;;4.30;2.60;;;;;;;-1.00;60.29;97881.60;104657;1274;74458;-25
2022/02/01 11:00:18;;;;;;;5.80;3.10;;;;;;;-0.99;60.75;97878.30;104740;1274;61388;-24
2022/02/01 11:02:47;;;;;;;6.30;2.60;;;;;;;-0.99;60.44;97876.95;104635;1274;61923;-24
2022/02/01 11:05:17;;;;;;;5.30;2.10;;;;;;;-1.00;60.36;97877.16;104754;1274;72988;-23
2022/02/01 11:08:05;;;;;;;4.70;2.50;;;;;;;-0.96;60.70;97883.93;104661;1274;75025;-23
2022/02/01 11:10:33;;;;;;;7.40;2.90;;;;;;;-0.94;60.64;97882.80;104787;1274;74301;-24
2022/02/01 11:13:06;;;;;;;6.50;2.30;;;;;;;-1.00;60.53;97883.77;105107;1274;61187;-25
2022/02/01 11:15:35;;;;;;;7.80;2.50;;;;;;;-1.01;61.31;97883.50;104701;1274;61046;-25
2022/02/01 11:18:13;;;;;;;4.00;1.80;;;;;;;-0.95;61.35;97882.66;104626;1274;73282;-22
2022/02/01 11:20:47;;;;;;;4.40;1.60;;;;;;;-1.06;59.53;97870.79;104339;1275;76021;-22
2022/02/01 11:23:22;;;;;;;4.30;1.70;;;;;;;-1.19;59.01;97866.04;104790;1274;73446;-22
2022/02/01 11:25:57;;;;;;;4.00;2.00;;;;;;;-1.20;58.74;97860.31;105079;1274;61132;-22
2022/02/01 11:28:58;;;;;;;4.30;1.90;;;;;;;-1.19;57.80;97866.20;104905;1274;61203;-22
2022/02/01 11:31:30;;;;;;;3.00;1.90;;;;;;;-1.18;57.39;97864.44;104887;1274;74932;-22
2022/02/01 11:33:58;;;;;;;4.90;2.80;;;;;;;-1.25;57.33;97859.02;104662;1274;76527;-22
2022/02/01 11:36:27;;;;;;;4.10;2.10;;;;;;;-1.28;57.82;97855.41;104632;1274;73059;-24
2022/02/01 11:38:58;;;;;;;3.30;2.00;;;;;;;-1.24;58.35;97856.56;104612;1274;61122;-25
2022/02/01 11:41:45;;;;;;;3.80;1.70;;;;;;;-1.24;57.83;97851.45;104658;1274;61187;-23
2022/02/01 11:44:25;;;;;;;6.80;2.10;;;;;;;-1.28;57.18;97847.11;104575;1274;74010;-23
2022/02/01 11:47:03;;;;;;;6.50;1.90;;;;;;;-1.29;57.72;97865.86;104647;1274;75215;-22
2022/02/01 11:49:31;;;;;;;5.30;2.20;;;;;;;-1.27;57.61;97859.97;104636;1274;74335;-23
2022/02/01 11:52:14;;;;;;;5.50;1.80;;;;;;;-1.30;56.77;97851.81;104766;1274;61476;-24
2022/02/01 11:54:43;;;;;;;3.10;1.40;;;;;;;-1.38;57.15;97863.27;104609;1274;61260;-24
2022/02/01 11:57:18;;;;;;;3.10;1.60;;;;;;;-1.39;55.39;97863.48;104637;1272;73930;-23
2022/02/01 12:00:16;;;;;;;3.90;2.20;;;;;;;-1.43;56.62;97866.05;104651;1275;76254;-24
2022/02/01 12:02:53;;;;;;;3.40;1.70;;;;;;;-1.36;55.57;97860.98;105069;1274;73543;-24
2022/02/01 12:05:30;;;;;;;3.80;1.80;;;;;;;-1.31;55.65;97865.32;104864;1274;61161;-23
2022/02/01 12:08:11;;;;;;;4.60;2.00;;;;;;;-1.41;56.03;97868.51;104766;1274;61057;-23
2022/02/01 12:10:51;;;;;;;3.10;1.50;;;;;;;-1.48;54.44;97863.08;104755;1274;74522;-24
2022/02/01 12:13:21;;;;;;;3.30;1.50;;;;;;;-1.53;52.78;97852.14;104884;1274;75820;-22
2022/02/01 12:15:51;;;;;;;1.60;1.10;;;;;;;-1.71;52.90;97865.60;104702;1275;73358;-25
2022/02/01 12:19:01;;;;;;;3.00;1.70;;;;;;;-1.69;53.94;97876.55;104838;1274;61358;-23
2022/02/01 12:21:39;;;;;;;1.60;1.10;;;;;;;-1.77;53.24;97871.18;104808;1274;62135;-22
2022/02/01 12:24:07;;;;;;;0.50;0.40;;;;;;;-1.78;50.16;97866.13;104873;1274;73968;-23
2022/02/01 12:26:40;;;;;;;1.40;0.50;;;;;;;-1.76;49.20;97863.83;105123;1274;74188;-23
2022/02/01 12:29:11;;;;;;;1.80;0.60;;;;;;;-1.83;48.20;97867.92;104782;1274;73428;-23
2022/02/01 12:31:40;;;;;;;0.60;0.50;;;;;;;-1.80;49.40;97874.77;104789;1275;61297;-22
2022/02/01 12:34:13;;;;;;;2.80;1.30;;;;;;;-1.74;50.35;97881.73;104746;1274;61199;-22
2022/02/01 12:36:43;;;;;;;2.00;0.70;;;;;;;-1.65;50.67;97880.77;104678;1274;74078;-22
2022/02/01 12:39:25;;;;;;;2.60;1.30;;;;;;;-1.56;50.02;97881.71;104620;1274;75050;-22
2022/02/01 12:42:12;;;;;;;1.00;0.70;;;;;;;-1.62;50.42;97888.83;104633;1274;73346;-23
2022/02/01 12:47:23;;;;;;;3.20;1.40;;;;;;;-1.54;51.25;97904.77;104705;1274;61085;-25
2022/02/01 12:50:13;;;;;;;1.20;0.80;;;;;;;-1.69;48.91;97896.97;104663;1274;73855;-23
2022/02/01 12:52:42;;;;;;;1.50;0.50;;;;;;;-1.67;46.97;97894.66;104598;1275;74501;-23
2022/02/01 12:55:13;;;;;;;1.20;0.50;;;;;;;-1.70;47.08;97895.01;104683;1274;74363;-23
2022/02/01 12:58:16;;;;;;;0.70;0.30;;;;;;;-1.64;46.87;97886.02;104597;1274;61086;-23
2022/02/01 13:01:05;;;;;;;0.40;0.40;;;;;;;-1.64;46.94;97886.04;104677;1274;62298;-22
2022/02/01 13:03:46;;;;;;;2.30;0.50;;;;;;;-1.84;47.01;97892.10;104753;1272;75490;-23
2022/02/01 13:06:15;;;;;;;0.70;0.40;;;;;;;-1.71;47.57;97886.69;104605;1274;75574;-23